createdAt,value
2017-06-13T00:04:46.356Z,31.90
2017-06-13T00:07:25.761Z,31.90
2017-06-13T00:10:05.786Z,31.80
2017-06-13T00:18:10.782Z,31.80
2017-06-13T00:29:05.005Z,31.60
2017-06-13T00:34:30.744Z,31.60
2017-06-13T00:48:05.030Z,31.40
2017-06-13T00:53:35.289Z,31.40
2017-06-13T00:56:20.666Z,31.40
2017-06-13T01:14:48.330Z,31.20
2017-06-13T01:25:30.074Z,31.10
2017-06-13T01:30:54.616Z,31.00
2017-06-13T01:39:03.782Z,30.90
2017-06-13T01:41:43.362Z,30.80
2017-06-13T01:44:23.190Z,30.90
2017-06-13T01:47:08.473Z,30.80
2017-06-13T01:57:43.813Z,30.80
2017-06-13T02:05:46.308Z,30.90
2017-06-13T02:08:25.610Z,30.90
2017-06-13T02:13:44.026Z,30.90
2017-06-13T02:16:17.867Z,30.90
2017-06-13T02:35:26.622Z,31.40
2017-06-13T02:40:40.567Z,31.50
2017-06-13T02:45:47.522Z,31.60
2017-06-13T03:07:30.339Z,32.30
2017-06-13T03:20:58.291Z,32.80
2017-06-13T03:23:32.977Z,32.90
2017-06-13T03:37:05.819Z,33.40
2017-06-13T03:39:45.252Z,33.40
2017-06-13T03:42:30.711Z,33.60
2017-06-13T03:50:28.802Z,34.10
2017-06-13T03:55:58.330Z,34.20
2017-06-13T03:58:31.958Z,34.30
2017-06-13T04:09:25.926Z,35.20
2017-06-13T04:12:11.182Z,35.50
2017-06-13T04:19:56.604Z,36.10
2017-06-13T04:25:08.857Z,36.50
2017-06-13T04:36:07.446Z,37.40
2017-06-13T04:41:37.210Z,38.00
2017-06-13T04:52:18.974Z,40.20
2017-06-13T05:00:22.983Z,46.00
2017-06-13T05:02:56.738Z,45.90
2017-06-13T05:05:36.050Z,46.70
2017-06-13T05:18:58.754Z,43.60
2017-06-13T05:46:10.630Z,48.00
2017-06-13T05:51:31.419Z,45.40
2017-06-13T05:54:17.031Z,45.40
2017-06-13T05:57:02.585Z,45.20
2017-06-13T06:10:23.805Z,44.80
2017-06-13T06:13:09.098Z,46.00
2017-06-13T06:18:44.830Z,47.70
2017-06-13T06:24:08.679Z,49.40
2017-06-13T06:26:42.330Z,50.10
2017-06-13T06:34:50.902Z,50.50
2017-06-13T06:48:13.678Z,46.10
2017-06-13T06:56:10.546Z,45.40
2017-06-13T07:06:57.586Z,45.20
2017-06-13T07:09:25.526Z,45.00
2017-06-13T07:17:40.054Z,45.90
2017-06-13T07:20:08.019Z,46.80
2017-06-13T07:33:41.626Z,48.60
2017-06-13T07:38:59.577Z,49.00
2017-06-13T07:44:24.908Z,46.30
2017-06-13T07:47:10.159Z,44.40
2017-06-13T07:49:55.682Z,44.10
2017-06-13T07:52:29.987Z,43.30
2017-06-13T07:57:44.256Z,42.70
2017-06-13T08:02:57.566Z,42.10
2017-06-13T08:08:17.405Z,42.10
2017-06-13T08:10:58.074Z,41.90
2017-06-13T08:13:31.680Z,41.90
2017-06-13T08:19:01.462Z,41.70
2017-06-13T08:24:27.354Z,41.90
2017-06-13T08:27:12.682Z,41.80
2017-06-13T08:35:17.605Z,41.70
2017-06-13T08:37:51.254Z,41.70
2017-06-13T08:40:24.957Z,42.00
2017-06-13T08:48:45.301Z,41.70
2017-06-13T08:51:13.285Z,41.60
2017-06-13T08:53:41.280Z,41.50
2017-06-13T08:56:09.446Z,41.60
2017-06-13T08:58:37.378Z,41.70
2017-06-13T09:01:06.162Z,41.70
2017-06-13T09:03:34.089Z,41.70
2017-06-13T09:06:02.065Z,41.50
2017-06-13T09:08:30.760Z,41.50
2017-06-13T09:10:58.793Z,41.70
2017-06-13T09:13:26.828Z,41.70
2017-06-13T09:15:54.900Z,41.50
2017-06-13T09:18:22.938Z,41.60
2017-06-13T09:20:50.881Z,41.50
2017-06-13T09:23:19.044Z,41.60
2017-06-13T09:25:47.133Z,41.50
2017-06-13T09:28:15.181Z,41.50
2017-06-13T09:30:43.357Z,41.40
2017-06-13T09:33:11.344Z,41.30
2017-06-13T09:35:39.432Z,41.30
2017-06-13T09:38:07.636Z,41.00
2017-06-13T09:40:35.873Z,41.00
2017-06-13T09:43:04.116Z,41.00
2017-06-13T09:45:32.676Z,41.10
2017-06-13T09:48:01.264Z,41.00
2017-06-13T09:50:29.344Z,41.00
2017-06-13T09:52:57.601Z,40.90
2017-06-13T09:55:26.359Z,40.90
2017-06-13T09:57:54.444Z,40.80
2017-06-13T10:00:22.520Z,40.80
2017-06-13T10:02:50.457Z,40.80
2017-06-13T10:05:18.409Z,40.60
2017-06-13T10:07:46.492Z,40.70
2017-06-13T10:10:14.493Z,41.10
2017-06-13T10:25:32.665Z,41.00
2017-06-13T10:28:01.205Z,40.70
2017-06-13T10:30:29.293Z,40.60
2017-06-13T10:32:57.928Z,40.50
2017-06-13T10:35:26.063Z,40.60
2017-06-13T10:37:54.153Z,40.80
2017-06-13T10:40:22.389Z,40.60
2017-06-13T10:42:50.501Z,40.60
2017-06-13T10:45:18.613Z,40.30
2017-06-13T10:47:46.824Z,40.30
2017-06-13T10:50:14.902Z,40.40
2017-06-13T10:52:43.045Z,40.30
2017-06-13T10:55:11.341Z,40.30
2017-06-13T10:57:39.490Z,40.20
2017-06-13T11:00:07.885Z,40.10
2017-06-13T11:02:36.306Z,40.00
2017-06-13T11:05:04.392Z,40.10
2017-06-13T11:07:32.501Z,40.00
2017-06-13T11:10:00.772Z,39.90
2017-06-13T11:12:28.872Z,39.90
2017-06-13T11:14:57.039Z,39.90
2017-06-13T11:17:25.330Z,39.90
2017-06-13T11:19:53.441Z,40.00
2017-06-13T11:22:21.549Z,40.00
2017-06-13T11:24:49.777Z,40.10
2017-06-13T11:27:17.888Z,40.00
2017-06-13T11:29:46.022Z,39.90
2017-06-13T11:32:14.267Z,39.90
2017-06-13T11:34:42.373Z,39.80
2017-06-13T11:37:10.573Z,39.80
2017-06-13T11:39:38.788Z,39.60
2017-06-13T11:42:06.897Z,39.50
2017-06-13T11:44:35.108Z,39.50
2017-06-13T11:47:03.356Z,39.40
2017-06-13T11:49:31.512Z,39.40
2017-06-13T11:51:59.688Z,39.40
2017-06-13T11:54:27.948Z,39.40
2017-06-13T11:56:56.077Z,39.10
2017-06-13T11:59:24.188Z,39.00
2017-06-13T12:01:52.548Z,38.80
2017-06-13T12:04:20.732Z,38.50
2017-06-13T12:06:48.832Z,38.50
2017-06-13T12:09:17.088Z,38.50
2017-06-13T12:11:45.173Z,38.50
2017-06-13T12:14:13.399Z,38.40
2017-06-13T12:16:41.625Z,38.40
2017-06-13T12:19:09.737Z,38.30
2017-06-13T12:21:37.845Z,38.20
2017-06-13T12:24:06.542Z,38.30
2017-06-13T12:26:34.869Z,38.20
2017-06-13T12:29:02.999Z,38.20
2017-06-13T12:31:31.403Z,38.30
2017-06-13T12:33:59.610Z,38.30
2017-06-13T12:36:27.862Z,38.20
2017-06-13T12:38:56.117Z,38.20
2017-06-13T12:41:25.663Z,38.10
2017-06-13T12:43:53.765Z,38.10
2017-06-13T12:46:22.569Z,37.80
2017-06-13T12:48:51.053Z,38.00
2017-06-13T12:51:19.532Z,37.90
2017-06-13T12:53:48.092Z,37.90
2017-06-13T12:56:16.673Z,37.90
2017-06-13T12:58:45.260Z,37.90
2017-06-13T13:01:13.481Z,37.80
2017-06-13T13:03:41.712Z,37.80
2017-06-13T13:06:10.464Z,37.70
2017-06-13T13:08:39.932Z,37.50
2017-06-13T13:11:08.049Z,37.50
2017-06-13T13:13:36.569Z,37.50
2017-06-13T13:16:05.252Z,37.20
2017-06-13T13:18:33.935Z,37.20
2017-06-13T13:21:02.401Z,37.10
2017-06-13T13:23:31.216Z,37.10
2017-06-13T13:25:59.896Z,37.20
2017-06-13T13:28:28.577Z,37.30
2017-06-13T13:30:57.228Z,37.30
2017-06-13T13:33:25.344Z,37.20
2017-06-13T13:35:53.453Z,37.10
2017-06-13T13:38:22.208Z,36.90
2017-06-13T13:40:50.317Z,36.80
2017-06-13T13:43:18.796Z,36.70
2017-06-13T13:45:47.549Z,36.80
2017-06-13T13:48:15.625Z,36.70
2017-06-13T13:50:43.772Z,36.70
2017-06-13T13:53:12.995Z,36.50
2017-06-13T13:55:41.084Z,36.60
2017-06-13T13:58:09.689Z,36.60
2017-06-13T14:00:38.304Z,36.60
2017-06-13T14:03:07.741Z,36.60
2017-06-13T14:05:36.314Z,36.60
2017-06-13T14:08:04.844Z,36.60
2017-06-13T14:10:32.944Z,36.60
2017-06-13T14:13:02.358Z,36.50
2017-06-13T14:15:30.568Z,36.50
2017-06-13T14:17:58.640Z,36.40
2017-06-13T14:20:26.724Z,36.40
2017-06-13T14:22:54.992Z,36.40
2017-06-13T14:25:23.083Z,36.20
2017-06-13T14:27:51.160Z,36.20
2017-06-13T14:30:19.372Z,36.10
2017-06-13T14:32:48.721Z,36.00
2017-06-13T14:35:17.508Z,36.00
2017-06-13T14:37:45.713Z,36.00
2017-06-13T14:40:14.297Z,35.90
2017-06-13T14:42:42.380Z,35.80
2017-06-13T14:45:11.233Z,35.70
2017-06-13T14:47:39.845Z,35.70
2017-06-13T14:50:08.273Z,35.60
2017-06-13T14:52:36.985Z,35.60
2017-06-13T14:55:05.601Z,35.60
2017-06-13T14:57:34.028Z,35.60
2017-06-13T15:00:02.265Z,35.70
2017-06-13T15:02:31.017Z,35.60
2017-06-13T15:04:59.428Z,35.50
2017-06-13T15:07:28.188Z,35.50
2017-06-13T15:09:56.941Z,35.50
2017-06-13T15:12:26.281Z,35.40
2017-06-13T15:14:55.816Z,35.30
2017-06-13T15:17:24.373Z,35.30
2017-06-13T15:19:53.060Z,35.20
2017-06-13T15:22:21.917Z,35.10
2017-06-13T15:24:50.304Z,35.20
2017-06-13T15:27:18.844Z,35.10
2017-06-13T15:29:47.670Z,34.90
2017-06-13T15:32:16.284Z,34.90
2017-06-13T15:34:45.796Z,34.80
2017-06-13T15:37:14.349Z,34.80
2017-06-13T15:39:42.892Z,34.90
2017-06-13T15:42:11.553Z,34.80
2017-06-13T15:44:39.785Z,34.70
2017-06-13T15:47:09.009Z,34.60
2017-06-13T15:49:38.665Z,34.60
2017-06-13T15:52:07.237Z,34.60
2017-06-13T15:54:35.807Z,34.60
2017-06-13T15:57:04.457Z,34.60
2017-06-13T15:59:33.901Z,34.50
2017-06-13T16:02:02.448Z,34.40
2017-06-13T16:04:30.893Z,34.40
2017-06-13T16:06:59.096Z,34.40
2017-06-13T16:09:28.545Z,34.40
2017-06-13T16:11:57.226Z,34.30
2017-06-13T16:14:25.776Z,34.40
2017-06-13T16:16:53.864Z,34.40
2017-06-13T16:19:21.957Z,34.30
2017-06-13T16:21:50.250Z,34.10
2017-06-13T16:24:18.332Z,34.10
2017-06-13T16:26:46.396Z,34.10
2017-06-13T16:29:14.596Z,34.20
2017-06-13T16:31:43.242Z,34.20
2017-06-13T16:34:12.757Z,34.20
2017-06-13T16:36:41.364Z,34.20
2017-06-13T16:39:09.925Z,34.20
2017-06-13T16:41:38.003Z,34.20
2017-06-13T16:44:06.641Z,34.10
2017-06-13T16:46:34.701Z,34.10
2017-06-13T16:49:02.768Z,33.90
2017-06-13T16:51:31.011Z,33.90
2017-06-13T16:53:59.088Z,33.90
2017-06-13T16:56:27.180Z,34.10
2017-06-13T16:58:55.420Z,34.10
2017-06-13T17:01:23.497Z,34.00
2017-06-13T17:03:51.580Z,34.00
2017-06-13T17:06:20.265Z,34.00
2017-06-13T17:08:48.345Z,33.90
2017-06-13T17:11:16.593Z,33.90
2017-06-13T17:13:44.828Z,33.90
2017-06-13T17:16:12.925Z,33.90
2017-06-13T17:18:41.008Z,33.70
2017-06-13T17:21:09.828Z,33.80
2017-06-13T17:23:38.478Z,33.80
2017-06-13T17:26:07.165Z,33.70
2017-06-13T17:28:36.836Z,33.70
2017-06-13T17:31:04.933Z,33.70
2017-06-13T17:33:34.281Z,33.60
2017-06-13T17:36:03.973Z,33.60
2017-06-13T17:38:32.824Z,33.60
2017-06-13T17:41:01.338Z,33.70
2017-06-13T17:43:30.021Z,33.70
2017-06-13T17:45:59.324Z,33.50
2017-06-13T17:48:27.936Z,33.50
2017-06-13T17:50:56.741Z,33.50
2017-06-13T17:53:26.042Z,33.50
2017-06-13T17:55:54.237Z,33.50
2017-06-13T17:58:22.889Z,33.50
2017-06-13T18:00:51.649Z,33.50
2017-06-13T18:03:20.953Z,33.50
2017-06-13T18:05:50.576Z,33.50
2017-06-13T18:08:19.429Z,33.40
2017-06-13T18:10:47.877Z,33.50
2017-06-13T18:13:16.829Z,33.50
2017-06-13T18:15:46.184Z,33.60
2017-06-13T18:18:14.816Z,33.60
2017-06-13T18:20:43.164Z,33.60
2017-06-13T18:23:11.832Z,33.60
2017-06-13T18:25:40.117Z,33.60
2017-06-13T18:28:08.953Z,33.60
2017-06-13T18:30:38.249Z,33.50
2017-06-13T18:33:06.454Z,33.50
2017-06-13T18:35:34.743Z,33.50
2017-06-13T18:38:02.897Z,33.50
2017-06-13T18:40:31.060Z,33.40
2017-06-13T18:42:59.376Z,33.40
2017-06-13T18:45:27.596Z,33.40
2017-06-13T18:47:55.805Z,33.30
2017-06-13T18:50:24.129Z,33.20
2017-06-13T18:52:52.325Z,33.30
2017-06-13T18:55:20.921Z,33.30
2017-06-13T18:57:49.357Z,33.20
2017-06-13T19:00:17.842Z,33.20
2017-06-13T19:02:45.996Z,33.10
2017-06-13T19:05:14.934Z,33.20
2017-06-13T19:07:43.690Z,33.20
2017-06-13T19:10:11.900Z,33.10
2017-06-13T19:12:40.788Z,33.10
2017-06-13T19:15:09.353Z,33.10
2017-06-13T19:17:37.509Z,33.10
2017-06-13T19:20:05.853Z,33.00
2017-06-13T19:22:34.024Z,33.00
2017-06-13T19:25:09.010Z,33.00
2017-06-13T19:27:37.189Z,33.00
2017-06-13T19:30:05.410Z,32.90
2017-06-13T19:32:33.692Z,32.90
2017-06-13T19:35:01.875Z,32.80
2017-06-13T19:37:30.061Z,32.80
2017-06-13T19:39:58.332Z,32.80
2017-06-13T19:42:26.507Z,32.80
2017-06-13T19:44:54.668Z,32.70
2017-06-13T19:47:22.969Z,32.70
2017-06-13T19:49:51.764Z,32.60
2017-06-13T19:52:20.609Z,32.70
2017-06-13T19:54:49.501Z,32.60
2017-06-13T19:57:18.105Z,32.60
2017-06-13T19:59:47.640Z,32.40
2017-06-13T20:02:16.449Z,32.40
2017-06-13T20:04:45.031Z,32.40
2017-06-13T20:07:13.881Z,32.40
2017-06-13T20:09:43.535Z,32.30
2017-06-13T20:12:13.119Z,32.30
2017-06-13T20:14:42.017Z,32.40
2017-06-13T20:17:10.477Z,32.40
2017-06-13T20:19:40.057Z,32.40
2017-06-13T20:22:09.002Z,32.30
2017-06-13T20:24:38.085Z,32.30
2017-06-13T20:27:12.640Z,32.20
2017-06-13T20:29:42.421Z,32.20
2017-06-13T20:32:11.277Z,32.20
2017-06-13T20:34:39.928Z,32.20
2017-06-13T20:37:08.245Z,32.20
2017-06-13T20:39:37.029Z,32.00
2017-06-13T20:42:06.201Z,32.10
2017-06-13T20:44:35.225Z,32.00
2017-06-13T20:47:03.376Z,32.00
2017-06-13T20:49:32.009Z,32.00
2017-06-13T20:52:01.454Z,31.90
2017-06-13T20:54:30.147Z,31.90
2017-06-13T20:56:58.865Z,31.90
2017-06-13T20:59:27.809Z,31.90
2017-06-13T21:01:56.316Z,31.80
2017-06-13T21:04:24.845Z,31.80
2017-06-13T21:06:54.302Z,31.80
2017-06-13T21:09:22.941Z,31.80
2017-06-13T21:11:52.186Z,31.70
2017-06-13T21:14:21.137Z,31.80
2017-06-13T21:16:49.321Z,31.70
2017-06-13T21:19:17.613Z,31.70
2017-06-13T21:21:45.961Z,31.80
2017-06-13T21:24:14.549Z,31.80
2017-06-13T21:26:43.752Z,31.80
2017-06-13T21:29:12.058Z,31.80
2017-06-13T21:31:40.217Z,31.70
2017-06-13T21:34:08.889Z,31.70
2017-06-13T21:36:38.346Z,31.70
2017-06-13T21:39:06.997Z,31.70
2017-06-13T21:41:35.172Z,31.70
2017-06-13T21:44:03.489Z,31.70
2017-06-13T21:46:31.677Z,31.60
2017-06-13T21:48:59.865Z,31.60
2017-06-13T21:51:28.152Z,31.70
2017-06-13T21:53:56.216Z,31.60
2017-06-13T21:56:24.316Z,31.60
2017-06-13T21:58:52.518Z,31.60
2017-06-13T22:01:20.605Z,31.60
2017-06-13T22:03:48.709Z,31.50
2017-06-13T22:06:16.944Z,31.50
2017-06-13T22:08:45.037Z,31.50
2017-06-13T22:11:13.152Z,31.50
2017-06-13T22:13:42.633Z,31.50
2017-06-13T22:16:10.755Z,31.50
2017-06-13T22:18:39.364Z,31.50
2017-06-13T22:21:07.924Z,31.50
2017-06-13T22:23:36.023Z,31.40
2017-06-13T22:26:04.609Z,31.40
2017-06-13T22:28:33.496Z,31.30
2017-06-13T22:31:02.145Z,31.40
2017-06-13T22:33:30.211Z,31.40
2017-06-13T22:35:59.693Z,31.30
2017-06-13T22:38:28.274Z,31.30
2017-06-13T22:40:57.100Z,31.30
2017-06-13T22:43:26.549Z,31.20
2017-06-13T22:45:55.297Z,31.10
2017-06-13T22:48:23.684Z,31.20
2017-06-13T22:50:52.402Z,31.10
2017-06-13T22:53:21.013Z,31.10
2017-06-13T22:55:49.736Z,31.10
2017-06-13T22:58:19.184Z,31.20
2017-06-13T23:00:47.725Z,31.10
2017-06-13T23:03:17.093Z,31.10
2017-06-13T23:05:45.920Z,31.10
2017-06-13T23:08:14.484Z,31.10
2017-06-13T23:10:43.024Z,31.10
2017-06-13T23:13:11.813Z,31.10
2017-06-13T23:15:39.916Z,31.10
2017-06-13T23:18:08.002Z,31.10
2017-06-13T23:20:36.665Z,31.10
2017-06-13T23:23:05.260Z,31.00
2017-06-13T23:25:33.920Z,31.00
2017-06-13T23:28:02.713Z,31.00
2017-06-13T23:30:31.392Z,31.00
2017-06-13T23:32:59.910Z,31.00
2017-06-13T23:35:28.164Z,31.10
2017-06-13T23:37:56.256Z,31.10
2017-06-13T23:40:24.917Z,31.10
2017-06-13T23:42:53.770Z,31.00
2017-06-13T23:45:21.845Z,31.00
2017-06-13T23:47:50.492Z,31.00
2017-06-13T23:50:18.704Z,30.90
2017-06-13T23:52:46.792Z,31.00
2017-06-13T23:55:14.849Z,31.00
2017-06-13T23:57:43.101Z,31.00
